createdAt,value
2022-08-12T00:00:06.210Z,98713.00
2022-08-12T00:00:18.183Z,98711.00
2022-08-12T00:00:26.203Z,98715.00
2022-08-12T00:00:36.223Z,98715.00
2022-08-12T00:00:46.971Z,98713.00
2022-08-12T00:00:56.182Z,98711.00
2022-08-12T00:01:08.155Z,98715.00
2022-08-12T00:01:18.884Z,98713.00
2022-08-12T00:02:02.952Z,98713.00
2022-08-12T00:02:03.249Z,98713.00
2022-08-12T00:02:03.956Z,98709.00
2022-08-12T00:02:04.875Z,98713.00
2022-08-12T00:02:09.532Z,98711.00
2022-08-12T00:02:21.453Z,98711.00
2022-08-12T00:02:31.442Z,98711.00
2022-08-12T00:02:39.818Z,98713.00
2022-08-12T00:02:51.505Z,98713.00
2022-08-12T00:03:01.506Z,98713.00
2022-08-12T00:03:09.659Z,98715.00
2022-08-12T00:03:20.922Z,98713.00
2022-08-12T00:03:29.595Z,98709.00
2022-08-12T00:03:41.512Z,98709.00
2022-08-12T00:03:51.444Z,98711.00
2022-08-12T00:03:59.482Z,98711.00
2022-08-12T00:04:11.445Z,98711.00
2022-08-12T00:04:20.952Z,98711.00
2022-08-12T00:04:29.502Z,98711.00
2022-08-12T00:04:41.472Z,98709.00
2022-08-12T00:04:49.502Z,98709.00
2022-08-12T00:05:01.439Z,98711.00
2022-08-12T00:05:09.474Z,98709.00
2022-08-12T00:05:19.542Z,98709.00
2022-08-12T00:05:29.473Z,98707.00
2022-08-12T00:05:39.484Z,98709.00
2022-08-12T00:06:04.438Z,98706.00
2022-08-12T00:06:05.093Z,98707.00
2022-08-12T00:06:10.913Z,98707.00
2022-08-12T00:06:21.877Z,98709.00
2022-08-12T00:06:31.874Z,98709.00
2022-08-12T00:06:40.020Z,98707.00
2022-08-12T00:06:50.051Z,98707.00
2022-08-12T00:06:59.893Z,98707.00
2022-08-12T00:07:11.874Z,98707.00
2022-08-12T00:07:21.853Z,98706.00
2022-08-12T00:07:31.863Z,98709.00
2022-08-12T00:07:41.357Z,98706.00
2022-08-12T00:07:51.865Z,98704.00
2022-08-12T00:08:01.847Z,98706.00
2022-08-12T00:08:09.895Z,98706.00
2022-08-12T00:08:32.340Z,98707.00
2022-08-12T00:08:36.814Z,98709.00
2022-08-12T00:08:43.833Z,98709.00
2022-08-12T00:08:54.314Z,98706.00
2022-08-12T00:09:03.972Z,98704.00
2022-08-12T00:09:12.184Z,98706.00
2022-08-12T00:09:26.417Z,98702.00
2022-08-12T00:09:32.026Z,98707.00
2022-08-12T00:09:42.024Z,98704.00
2022-08-12T00:09:53.995Z,98704.00
2022-08-12T00:10:03.968Z,98706.00
2022-08-12T00:10:13.455Z,98706.00
2022-08-12T00:10:23.965Z,98706.00
2022-08-12T00:10:33.975Z,98704.00
2022-08-12T00:10:42.104Z,98704.00
2022-08-12T00:10:53.935Z,98704.00
2022-08-12T00:11:12.252Z,98706.00
2022-08-12T00:11:13.622Z,98709.00
2022-08-12T00:11:23.555Z,98707.00
2022-08-12T00:11:33.620Z,98704.00
2022-08-12T00:11:43.624Z,98707.00
2022-08-12T00:11:53.555Z,98707.00
2022-08-12T00:12:03.705Z,98707.00
2022-08-12T00:12:13.635Z,98707.00
2022-08-12T00:12:23.665Z,98709.00
2022-08-12T00:12:33.525Z,98709.00
2022-08-12T00:12:43.637Z,98711.00
2022-08-12T00:12:53.667Z,98706.00
2022-08-12T00:13:04.512Z,98706.00
2022-08-12T00:13:13.645Z,98709.00
2022-08-12T00:13:23.674Z,98709.00
2022-08-12T00:13:33.620Z,98709.00
2022-08-12T00:13:43.636Z,98711.00
2022-08-12T00:13:53.515Z,98709.00
2022-08-12T00:14:03.606Z,98709.00
2022-08-12T00:14:13.646Z,98709.00
2022-08-12T00:14:23.506Z,98706.00
2022-08-12T00:14:35.487Z,98709.00
2022-08-12T00:14:43.648Z,98709.00
2022-08-12T00:14:53.514Z,98709.00
2022-08-12T00:15:05.485Z,98711.00
2022-08-12T00:15:15.456Z,98711.00
2022-08-12T00:15:24.977Z,98707.00
2022-08-12T00:15:35.476Z,98706.00
2022-08-12T00:15:43.505Z,98707.00
2022-08-12T00:15:53.515Z,98709.00
2022-08-12T00:16:05.468Z,98707.00
2022-08-12T00:16:13.506Z,98707.00
2022-08-12T00:16:23.526Z,98709.00
2022-08-12T00:16:35.477Z,98707.00
2022-08-12T00:16:43.487Z,98709.00
2022-08-12T00:16:55.490Z,98709.00
2022-08-12T00:17:03.552Z,98713.00
2022-08-12T00:17:14.372Z,98709.00
2022-08-12T00:17:23.523Z,98709.00
2022-08-12T00:17:35.457Z,98709.00
2022-08-12T00:17:44.975Z,98709.00
2022-08-12T00:17:55.458Z,98709.00
2022-08-12T00:18:05.438Z,98709.00
2022-08-12T00:18:14.964Z,98707.00
2022-08-12T00:18:23.600Z,98709.00
2022-08-12T00:18:35.457Z,98709.00
2022-08-12T00:18:44.947Z,98707.00
2022-08-12T00:18:55.458Z,98707.00
2022-08-12T00:19:03.487Z,98707.00
2022-08-12T00:19:15.447Z,98709.00
2022-08-12T00:19:23.490Z,98707.00
2022-08-12T00:19:34.391Z,98709.00
2022-08-12T00:19:45.448Z,98711.00
2022-08-12T00:19:55.457Z,98707.00
2022-08-12T00:20:04.931Z,98707.00
2022-08-12T00:20:15.428Z,98713.00
2022-08-12T00:20:25.450Z,98711.00
2022-08-12T00:20:35.066Z,98713.00
2022-08-12T00:20:44.549Z,98711.00
2022-08-12T00:20:56.517Z,98713.00
2022-08-12T00:21:04.538Z,98711.00
2022-08-12T00:21:14.558Z,98711.00
2022-08-12T00:21:26.686Z,98713.00
2022-08-12T00:21:36.529Z,98715.00
2022-08-12T00:21:46.494Z,98713.00
2022-08-12T00:21:56.499Z,98711.00
2022-08-12T00:22:05.429Z,98709.00
2022-08-12T00:22:16.488Z,98709.00
2022-08-12T00:22:26.478Z,98713.00
2022-08-12T00:22:34.616Z,98709.00
2022-08-12T00:22:46.479Z,98715.00
2022-08-12T00:22:58.988Z,98713.00
2022-08-12T00:23:08.009Z,98715.00
2022-08-12T00:23:18.029Z,98709.00
2022-08-12T00:23:26.815Z,98713.00
2022-08-12T00:23:36.239Z,98715.00
2022-08-12T00:23:46.069Z,98715.00
2022-08-12T00:23:56.820Z,98711.00
2022-08-12T00:24:06.049Z,98715.00
2022-08-12T00:24:16.097Z,98713.00
2022-08-12T00:24:26.827Z,98713.00
2022-08-12T00:24:36.987Z,98713.00
2022-08-12T00:24:47.528Z,98715.00
2022-08-12T00:24:56.135Z,98711.00
2022-08-12T00:25:06.043Z,98713.00
2022-08-12T00:25:16.079Z,98715.00
2022-08-12T00:26:18.968Z,98713.00
2022-08-12T00:26:18.968Z,98715.00
2022-08-12T00:26:20.145Z,98713.00
2022-08-12T00:26:21.452Z,98713.00
2022-08-12T00:26:23.018Z,98717.00
2022-08-12T00:26:23.183Z,98713.00
2022-08-12T00:26:31.711Z,98713.00
2022-08-12T00:26:41.734Z,98713.00
2022-08-12T00:26:51.210Z,98713.00
2022-08-12T00:27:01.737Z,98713.00
2022-08-12T00:27:09.771Z,98713.00
2022-08-12T00:27:19.780Z,98715.00
2022-08-12T00:27:43.628Z,98717.00
2022-08-12T00:27:44.059Z,98715.00
2022-08-12T00:27:53.271Z,98709.00
2022-08-12T00:28:03.251Z,98711.00
2022-08-12T00:28:11.311Z,98713.00
2022-08-12T00:28:21.930Z,98713.00
2022-08-12T00:28:31.311Z,98711.00
2022-08-12T00:28:41.390Z,98715.00
2022-08-12T00:28:53.264Z,98711.00
2022-08-12T00:29:03.289Z,98715.00
2022-08-12T00:29:13.243Z,98711.00
2022-08-12T00:29:22.747Z,98713.00
2022-08-12T00:29:31.289Z,98711.00
2022-08-12T00:29:45.880Z,98713.00
2022-08-12T00:29:53.052Z,98713.00
2022-08-12T00:30:01.610Z,98713.00
2022-08-12T00:30:12.601Z,98713.00
2022-08-12T00:30:23.571Z,98711.00
2022-08-12T00:30:33.551Z,98711.00
2022-08-12T00:30:43.564Z,98711.00
2022-08-12T00:30:51.583Z,98713.00
2022-08-12T00:31:02.522Z,98713.00
2022-08-12T00:31:13.592Z,98713.00
2022-08-12T00:31:21.583Z,98711.00
2022-08-12T00:31:31.621Z,98709.00
2022-08-12T00:31:41.601Z,98711.00
2022-08-12T00:31:53.552Z,98711.00
2022-08-12T00:32:01.790Z,98711.00
2022-08-12T00:32:13.551Z,98711.00
2022-08-12T00:32:35.301Z,98711.00
2022-08-12T00:32:54.525Z,98713.00
2022-08-12T00:32:54.926Z,98715.00
2022-08-12T00:32:57.103Z,98717.00
2022-08-12T00:33:05.281Z,98715.00
2022-08-12T00:33:14.731Z,98715.00
2022-08-12T00:33:25.591Z,98715.00
2022-08-12T00:33:38.681Z,98717.00
2022-08-12T00:33:52.630Z,98715.00
2022-08-12T00:33:57.822Z,98715.00
2022-08-12T00:34:07.781Z,98715.00
2022-08-12T00:34:17.787Z,98717.00
2022-08-12T00:34:25.827Z,98721.00
2022-08-12T00:34:37.793Z,98719.00
2022-08-12T00:34:45.828Z,98719.00
2022-08-12T00:34:55.847Z,98715.00
2022-08-12T00:35:08.806Z,98721.00
2022-08-12T00:35:15.864Z,98717.00
2022-08-12T00:35:32.147Z,98723.00
2022-08-12T00:35:37.393Z,98717.00
2022-08-12T00:35:47.393Z,98719.00
2022-08-12T00:35:58.200Z,98721.00
2022-08-12T00:36:09.323Z,98719.00
2022-08-12T00:36:35.223Z,98721.00
2022-08-12T00:36:36.121Z,98719.00
2022-08-12T00:36:41.964Z,98719.00
2022-08-12T00:36:51.913Z,98717.00
2022-08-12T00:37:04.642Z,98721.00
2022-08-12T00:37:13.271Z,98719.00
2022-08-12T00:37:21.935Z,98719.00
2022-08-12T00:37:31.913Z,98721.00
2022-08-12T00:37:40.855Z,98723.00
2022-08-12T00:37:51.924Z,98721.00
2022-08-12T00:37:59.973Z,98721.00
2022-08-12T00:38:10.806Z,98721.00
2022-08-12T00:38:21.927Z,98725.00
2022-08-12T00:38:30.952Z,98723.00
2022-08-12T00:38:39.956Z,98723.00
2022-08-12T00:38:51.923Z,98725.00
2022-08-12T00:39:01.414Z,98721.00
2022-08-12T00:39:10.781Z,98721.00
2022-08-12T00:39:20.169Z,98721.00
2022-08-12T00:39:31.940Z,98725.00
2022-08-12T00:39:40.168Z,98725.00
2022-08-12T00:39:51.946Z,98723.00
2022-08-12T00:40:01.898Z,98723.00
2022-08-12T00:40:11.645Z,98719.00
2022-08-12T00:40:19.954Z,98725.00
2022-08-12T00:40:31.910Z,98725.00
2022-08-12T00:40:39.944Z,98725.00
2022-08-12T00:40:50.805Z,98723.00
2022-08-12T00:40:59.971Z,98723.00
2022-08-12T00:41:09.944Z,98725.00
2022-08-12T00:41:21.896Z,98727.00
2022-08-12T00:41:29.953Z,98725.00
2022-08-12T00:41:39.965Z,98727.00
2022-08-12T00:41:49.985Z,98727.00
2022-08-12T00:42:01.905Z,98727.00
2022-08-12T00:42:11.926Z,98727.00
2022-08-12T00:42:21.896Z,98725.00
2022-08-12T00:42:31.876Z,98725.00
2022-08-12T00:42:40.037Z,98725.00
2022-08-12T00:42:49.939Z,98727.00
2022-08-12T00:42:59.964Z,98727.00
2022-08-12T00:43:11.875Z,98729.00
2022-08-12T00:43:19.917Z,98727.00
2022-08-12T00:43:29.994Z,98727.00
2022-08-12T00:43:40.271Z,98729.00
2022-08-12T00:43:50.775Z,98729.00
2022-08-12T00:44:01.832Z,98729.00
2022-08-12T00:44:10.615Z,98737.00
2022-08-12T00:44:22.586Z,98739.00
2022-08-12T00:44:31.475Z,98729.00
2022-08-12T00:44:42.655Z,98729.00
2022-08-12T00:44:50.815Z,98729.00
2022-08-12T00:45:02.565Z,98737.00
2022-08-12T00:45:12.545Z,98737.00
2022-08-12T00:45:22.098Z,98739.00
2022-08-12T00:45:32.550Z,98739.00
2022-08-12T00:45:40.598Z,98737.00
2022-08-12T00:45:52.592Z,98739.00
2022-08-12T00:46:00.587Z,98741.00
2022-08-12T00:46:10.895Z,98739.00
2022-08-12T00:46:20.604Z,98739.00
2022-08-12T00:46:30.576Z,98741.00
2022-08-12T00:46:42.546Z,98739.00
2022-08-12T00:46:50.928Z,98739.00
2022-08-12T00:47:00.806Z,98739.00
2022-08-12T00:47:24.762Z,98739.00
2022-08-12T00:47:25.497Z,98729.00
2022-08-12T00:47:32.526Z,98737.00
2022-08-12T00:47:40.593Z,98741.00
2022-08-12T00:47:50.603Z,98739.00
2022-08-12T00:48:02.607Z,98743.00
2022-08-12T00:48:12.028Z,98741.00
2022-08-12T00:48:22.544Z,98739.00
2022-08-12T00:48:30.567Z,98741.00
2022-08-12T00:48:42.566Z,98741.00
2022-08-12T00:48:52.537Z,98737.00
2022-08-12T00:49:02.532Z,98739.00
2022-08-12T00:49:10.567Z,98739.00
2022-08-12T00:49:21.527Z,98739.00
2022-08-12T00:49:32.527Z,98741.00
2022-08-12T00:49:41.017Z,98739.00
2022-08-12T00:49:51.047Z,98729.00
2022-08-12T00:50:00.617Z,98741.00
2022-08-12T00:50:10.836Z,98741.00
2022-08-12T00:50:22.517Z,98741.00
2022-08-12T00:50:32.506Z,98741.00
2022-08-12T00:50:40.559Z,98743.00
2022-08-12T00:50:50.658Z,98739.00
2022-08-12T00:51:02.518Z,98741.00
2022-08-12T00:51:10.936Z,98741.00
2022-08-12T00:51:21.166Z,98741.00
2022-08-12T00:51:31.198Z,98741.00
2022-08-12T00:51:41.137Z,98739.00
2022-08-12T00:51:51.167Z,98741.00
2022-08-12T00:52:00.610Z,98741.00
2022-08-12T00:52:11.140Z,98739.00
2022-08-12T00:52:21.194Z,98741.00
2022-08-12T00:52:32.554Z,98741.00
2022-08-12T00:52:41.433Z,98741.00
2022-08-12T00:52:51.179Z,98739.00
2022-08-12T00:53:01.214Z,98741.00
2022-08-12T00:53:10.606Z,98739.00
2022-08-12T00:53:22.558Z,98739.00
2022-08-12T00:53:30.916Z,98741.00
2022-08-12T00:53:41.257Z,98741.00
2022-08-12T00:53:51.287Z,98739.00
2022-08-12T00:54:01.318Z,98739.00
2022-08-12T00:54:10.568Z,98739.00
2022-08-12T00:54:22.548Z,98737.00
2022-08-12T00:54:32.180Z,98741.00
2022-08-12T00:54:41.259Z,98739.00
2022-08-12T00:54:50.568Z,98741.00
2022-08-12T00:55:01.330Z,98739.00
2022-08-12T00:55:11.366Z,98739.00
2022-08-12T00:55:21.303Z,98741.00
2022-08-12T00:55:31.450Z,98741.00
2022-08-12T00:55:40.598Z,98741.00
2022-08-12T00:55:51.406Z,98737.00
2022-08-12T00:56:00.621Z,98741.00
2022-08-12T00:56:11.369Z,98739.00
2022-08-12T00:56:21.410Z,98737.00
2022-08-12T00:56:30.549Z,98737.00
2022-08-12T00:56:41.388Z,98739.00
2022-08-12T00:56:51.409Z,98739.00
2022-08-12T00:57:00.558Z,98737.00
2022-08-12T00:57:11.378Z,98739.00
2022-08-12T00:57:21.409Z,98741.00
2022-08-12T00:57:30.549Z,98741.00
2022-08-12T00:57:40.569Z,98741.00
2022-08-12T00:57:50.631Z,98739.00
2022-08-12T00:58:00.643Z,98739.00
2022-08-12T00:58:11.488Z,98741.00
2022-08-12T00:58:21.116Z,98741.00
2022-08-12T00:58:30.561Z,98741.00
2022-08-12T00:58:41.080Z,98737.00
2022-08-12T00:58:50.562Z,98741.00
2022-08-12T00:59:00.573Z,98741.00
2022-08-12T00:59:10.578Z,98743.00
2022-08-12T00:59:22.501Z,98741.00
2022-08-12T00:59:30.550Z,98741.00
2022-08-12T00:59:40.587Z,98741.00
2022-08-12T00:59:50.549Z,98741.00
2022-08-12T01:00:00.592Z,98743.00
2022-08-12T01:00:10.581Z,98743.00
2022-08-12T01:00:20.554Z,98743.00
2022-08-12T01:00:32.507Z,98745.00
2022-08-12T01:00:42.519Z,98739.00
2022-08-12T01:00:52.537Z,98741.00
2022-08-12T01:01:02.536Z,98743.00
2022-08-12T01:01:10.620Z,98739.00
2022-08-12T01:01:22.600Z,98743.00
2022-08-12T01:02:00.915Z,98743.00
2022-08-12T01:02:02.471Z,98741.00
2022-08-12T01:02:10.313Z,98743.00
2022-08-12T01:02:11.412Z,98745.00
2022-08-12T01:02:14.409Z,98745.00
2022-08-12T01:02:24.241Z,98743.00
2022-08-12T01:02:36.215Z,98745.00
2022-08-12T01:02:46.192Z,98743.00
2022-08-12T01:02:56.181Z,98743.00
2022-08-12T01:03:06.204Z,98745.00
2022-08-12T01:03:16.181Z,98745.00
2022-08-12T01:03:26.192Z,98747.00
2022-08-12T01:03:34.229Z,98745.00
2022-08-12T01:03:46.216Z,98743.00
2022-08-12T01:03:55.003Z,98745.00
2022-08-12T01:04:04.240Z,98743.00
2022-08-12T01:04:16.250Z,98745.00
2022-08-12T01:04:24.377Z,98747.00
2022-08-12T01:04:34.677Z,98747.00
2022-08-12T01:04:45.932Z,98745.00
2022-08-12T01:04:56.562Z,98743.00
2022-08-12T01:05:04.621Z,98745.00
2022-08-12T01:05:14.629Z,98747.00
2022-08-12T01:05:26.582Z,98745.00
2022-08-12T01:05:34.612Z,98747.00
2022-08-12T01:05:45.599Z,98743.00
2022-08-12T01:05:56.553Z,98747.00
2022-08-12T01:06:04.611Z,98747.00
2022-08-12T01:06:16.615Z,98745.00
2022-08-12T01:06:26.542Z,98749.00
2022-08-12T01:06:34.703Z,98747.00
2022-08-12T01:06:46.573Z,98745.00
2022-08-12T01:06:57.862Z,98745.00
2022-08-12T01:07:07.849Z,98745.00
2022-08-12T01:07:17.853Z,98749.00
2022-08-12T01:07:25.953Z,98747.00
2022-08-12T01:07:35.928Z,98747.00
2022-08-12T01:07:45.945Z,98747.00
2022-08-12T01:07:55.921Z,98747.00
2022-08-12T01:08:07.882Z,98751.00
2022-08-12T01:08:17.846Z,98749.00
2022-08-12T01:08:27.348Z,98747.00
2022-08-12T01:08:37.838Z,98747.00
2022-08-12T01:08:45.892Z,98749.00
2022-08-12T01:08:57.920Z,98747.00
2022-08-12T01:09:05.969Z,98749.00
2022-08-12T01:09:15.900Z,98747.00
2022-08-12T01:09:27.854Z,98749.00
2022-08-12T01:09:37.842Z,98751.00
2022-08-12T01:09:47.843Z,98743.00
2022-08-12T01:09:57.836Z,98749.00
2022-08-12T01:10:07.837Z,98749.00
2022-08-12T01:10:17.867Z,98749.00
2022-08-12T01:10:29.648Z,98745.00
2022-08-12T01:10:37.863Z,98747.00
2022-08-12T01:10:45.886Z,98745.00
2022-08-12T01:10:55.898Z,98745.00
2022-08-12T01:11:05.893Z,98747.00
2022-08-12T01:11:17.835Z,98745.00
2022-08-12T01:11:25.860Z,98745.00
2022-08-12T01:11:35.872Z,98747.00
2022-08-12T01:11:47.848Z,98745.00
2022-08-12T01:11:57.837Z,98747.00
2022-08-12T01:12:05.874Z,98747.00
2022-08-12T01:12:15.964Z,98745.00
2022-08-12T01:12:25.875Z,98747.00
2022-08-12T01:12:36.735Z,98745.00
2022-08-12T01:12:45.886Z,98747.00
2022-08-12T01:13:18.231Z,98749.00
2022-08-12T01:13:18.536Z,98749.00
2022-08-12T01:13:19.229Z,98743.00
2022-08-12T01:13:29.364Z,98751.00
2022-08-12T01:13:37.415Z,98749.00
2022-08-12T01:13:47.607Z,98749.00
2022-08-12T01:13:57.404Z,98747.00
2022-08-12T01:14:09.366Z,98747.00
2022-08-12T01:14:17.414Z,98747.00
2022-08-12T01:14:27.414Z,98749.00
2022-08-12T01:14:38.891Z,98749.00
2022-08-12T01:14:49.356Z,98749.00
2022-08-12T01:14:59.364Z,98751.00
2022-08-12T01:15:07.414Z,98751.00
2022-08-12T01:15:18.298Z,98751.00
2022-08-12T01:15:29.365Z,98747.00
2022-08-12T01:15:39.366Z,98751.00
2022-08-12T01:15:47.409Z,98751.00
2022-08-12T01:15:58.209Z,98751.00
2022-08-12T01:16:09.405Z,98751.00
2022-08-12T01:16:19.356Z,98751.00
2022-08-12T01:16:29.395Z,98751.00
2022-08-12T01:16:37.397Z,98751.00
2022-08-12T01:16:47.416Z,98753.00
2022-08-12T01:16:57.416Z,98747.00
2022-08-12T01:17:09.345Z,98751.00
2022-08-12T01:17:19.347Z,98747.00
2022-08-12T01:17:29.345Z,98747.00
2022-08-12T01:17:39.336Z,98749.00
2022-08-12T01:17:49.325Z,98747.00
2022-08-12T01:17:59.345Z,98751.00
2022-08-12T01:18:08.856Z,98745.00
2022-08-12T01:18:17.388Z,98747.00
2022-08-12T01:18:27.411Z,98749.00
2022-08-12T01:18:37.395Z,98747.00
2022-08-12T01:18:49.383Z,98747.00
2022-08-12T01:18:57.466Z,98745.00
2022-08-12T01:19:07.386Z,98747.00
2022-08-12T01:19:19.346Z,98747.00
2022-08-12T01:19:27.365Z,98745.00
2022-08-12T01:19:37.396Z,98747.00
2022-08-12T01:19:47.412Z,98749.00
2022-08-12T01:19:57.396Z,98751.00
2022-08-12T01:20:09.327Z,98749.00
2022-08-12T01:20:19.336Z,98743.00
2022-08-12T01:20:29.307Z,98749.00
2022-08-12T01:20:37.375Z,98747.00
2022-08-12T01:20:49.331Z,98749.00
2022-08-12T01:20:59.307Z,98743.00
2022-08-12T01:21:07.548Z,98747.00
2022-08-12T01:21:19.312Z,98745.00
2022-08-12T01:21:29.310Z,98745.00
2022-08-12T01:21:39.327Z,98747.00
2022-08-12T01:21:49.306Z,98747.00
2022-08-12T01:21:57.357Z,98749.00
2022-08-12T01:22:09.316Z,98747.00
2022-08-12T01:22:18.646Z,98745.00
2022-08-12T01:22:27.630Z,98743.00
2022-08-12T01:22:39.480Z,98745.00
2022-08-12T01:22:49.311Z,98747.00
2022-08-12T01:22:57.348Z,98747.00
2022-08-12T01:23:07.664Z,98745.00
2022-08-12T01:23:17.337Z,98743.00
2022-08-12T01:23:29.348Z,98745.00
2022-08-12T01:23:37.360Z,98747.00
2022-08-12T01:23:47.350Z,98747.00
2022-08-12T01:23:59.301Z,98743.00
2022-08-12T01:24:28.167Z,98747.00
2022-08-12T01:24:29.619Z,98747.00
2022-08-12T01:24:31.976Z,98745.00
2022-08-12T01:24:40.548Z,98745.00
2022-08-12T01:24:50.425Z,98745.00
2022-08-12T01:25:00.720Z,98745.00
2022-08-12T01:25:10.779Z,98747.00
2022-08-12T01:25:20.777Z,98745.00
2022-08-12T01:25:30.419Z,98743.00
2022-08-12T01:25:41.585Z,98745.00
2022-08-12T01:25:56.130Z,98741.00
2022-08-12T01:26:01.418Z,98741.00
2022-08-12T01:26:10.859Z,98743.00
2022-08-12T01:26:20.789Z,98745.00
2022-08-12T01:26:30.818Z,98745.00
2022-08-12T01:26:40.408Z,98745.00
2022-08-12T01:26:50.447Z,98745.00
2022-08-12T01:27:00.828Z,98747.00
2022-08-12T01:27:10.403Z,98745.00
2022-08-12T01:27:20.440Z,98743.00
2022-08-12T01:27:30.629Z,98743.00
2022-08-12T01:27:40.442Z,98745.00
2022-08-12T01:27:50.425Z,98743.00
2022-08-12T01:28:01.108Z,98739.00
2022-08-12T01:28:10.389Z,98741.00
2022-08-12T01:28:22.369Z,98743.00
2022-08-12T01:28:30.409Z,98743.00
2022-08-12T01:28:40.428Z,98745.00
2022-08-12T01:28:50.487Z,98745.00
2022-08-12T01:29:02.370Z,98743.00
2022-08-12T01:29:10.403Z,98743.00
2022-08-12T01:29:22.368Z,98745.00
2022-08-12T01:29:33.271Z,98745.00
2022-08-12T01:29:40.410Z,98743.00
2022-08-12T01:29:50.419Z,98741.00
2022-08-12T01:30:02.403Z,98743.00
2022-08-12T01:30:12.330Z,98743.00
2022-08-12T01:30:22.368Z,98741.00
2022-08-12T01:30:30.379Z,98743.00
2022-08-12T01:30:40.409Z,98741.00
2022-08-12T01:30:52.358Z,98743.00
2022-08-12T01:31:02.428Z,98743.00
2022-08-12T01:31:16.240Z,98743.00
2022-08-12T01:31:22.090Z,98743.00
2022-08-12T01:31:33.124Z,98743.00
2022-08-12T01:31:43.108Z,98743.00
2022-08-12T01:31:53.069Z,98741.00
2022-08-12T01:32:02.598Z,98743.00
2022-08-12T01:32:11.149Z,98743.00
2022-08-12T01:32:23.113Z,98743.00
2022-08-12T01:32:33.090Z,98743.00
2022-08-12T01:32:41.337Z,98745.00
2022-08-12T01:32:51.961Z,98743.00
2022-08-12T01:33:03.111Z,98743.00
2022-08-12T01:33:11.130Z,98743.00
2022-08-12T01:33:23.099Z,98743.00
2022-08-12T01:33:31.119Z,98741.00
2022-08-12T01:33:41.141Z,98745.00
2022-08-12T01:33:51.160Z,98741.00
2022-08-12T01:34:01.143Z,98743.00
2022-08-12T01:34:35.324Z,98739.00
2022-08-12T01:34:36.550Z,98741.00
2022-08-12T01:34:36.568Z,98741.00
2022-08-12T01:34:44.231Z,98743.00
2022-08-12T01:34:56.191Z,98743.00
2022-08-12T01:35:04.231Z,98743.00
2022-08-12T01:35:14.230Z,98743.00
2022-08-12T01:35:24.260Z,98743.00
2022-08-12T01:35:34.269Z,98743.00
2022-08-12T01:35:44.230Z,98741.00
2022-08-12T01:36:07.699Z,98743.00
2022-08-12T01:36:08.459Z,98745.00
2022-08-12T01:36:15.661Z,98741.00
2022-08-12T01:36:26.174Z,98743.00
2022-08-12T01:36:34.211Z,98743.00
2022-08-12T01:36:46.177Z,98741.00
2022-08-12T01:36:55.672Z,98741.00
2022-08-12T01:37:04.221Z,98741.00
2022-08-12T01:37:16.181Z,98743.00
2022-08-12T01:37:26.154Z,98745.00
2022-08-12T01:37:36.151Z,98743.00
2022-08-12T01:37:46.151Z,98743.00
2022-08-12T01:37:54.249Z,98741.00
2022-08-12T01:38:06.131Z,98743.00
2022-08-12T01:38:15.641Z,98743.00
2022-08-12T01:38:30.027Z,98739.00
2022-08-12T01:38:34.231Z,98737.00
2022-08-12T01:38:44.224Z,98739.00
2022-08-12T01:38:54.969Z,98739.00
2022-08-12T01:39:04.212Z,98739.00
2022-08-12T01:39:16.166Z,98741.00
2022-08-12T01:39:24.243Z,98739.00
2022-08-12T01:39:34.244Z,98741.00
2022-08-12T01:40:31.275Z,98739.00
2022-08-12T01:40:34.313Z,98739.00
2022-08-12T01:40:34.589Z,98739.00
2022-08-12T01:40:36.099Z,98739.00
2022-08-12T01:40:36.732Z,98741.00
2022-08-12T01:40:38.362Z,98739.00
2022-08-12T01:40:48.496Z,98737.00
2022-08-12T01:40:58.498Z,98737.00
2022-08-12T01:41:08.428Z,98739.00
2022-08-12T01:41:18.422Z,98739.00
2022-08-12T01:41:27.032Z,98739.00
2022-08-12T01:41:38.435Z,98739.00
2022-08-12T01:41:51.497Z,98737.00
2022-08-12T01:41:58.773Z,98737.00
2022-08-12T01:42:08.012Z,98737.00
2022-08-12T01:42:20.024Z,98739.00
2022-08-12T01:42:30.012Z,98737.00
2022-08-12T01:42:39.659Z,98737.00
2022-08-12T01:42:48.031Z,98729.00
2022-08-12T01:42:58.010Z,98737.00
2022-08-12T01:43:08.933Z,98737.00
2022-08-12T01:43:18.025Z,98739.00
2022-08-12T01:43:28.582Z,98729.00
2022-08-12T01:43:37.980Z,98737.00
2022-08-12T01:43:48.003Z,98729.00
2022-08-12T01:43:58.004Z,98729.00
2022-08-12T01:44:09.967Z,98739.00
2022-08-12T01:44:20.697Z,98737.00
2022-08-12T01:44:29.943Z,98729.00
2022-08-12T01:44:37.983Z,98741.00
2022-08-12T01:44:48.766Z,98737.00
2022-08-12T01:44:58.014Z,98737.00
2022-08-12T01:45:08.003Z,98729.00
2022-08-12T01:45:18.975Z,98737.00
2022-08-12T01:45:29.987Z,98729.00
2022-08-12T01:45:43.726Z,98727.00
2022-08-12T01:45:54.516Z,98727.00
2022-08-12T01:46:01.539Z,98729.00
2022-08-12T01:46:10.784Z,98737.00
2022-08-12T01:46:20.734Z,98729.00
2022-08-12T01:46:30.034Z,98737.00
2022-08-12T01:46:41.984Z,98729.00
2022-08-12T01:46:50.047Z,98727.00
2022-08-12T01:47:02.007Z,98725.00
2022-08-12T01:47:11.485Z,98727.00
2022-08-12T01:47:21.989Z,98729.00
2022-08-12T01:47:30.864Z,98727.00
2022-08-12T01:47:40.099Z,98729.00
2022-08-12T01:47:50.054Z,98729.00
2022-08-12T01:48:00.033Z,98729.00
2022-08-12T01:48:10.201Z,98729.00
2022-08-12T01:48:20.835Z,98729.00
2022-08-12T01:48:30.965Z,98729.00
2022-08-12T01:48:42.034Z,98727.00
2022-08-12T01:48:50.095Z,98729.00
2022-08-12T01:49:00.395Z,98725.00
2022-08-12T01:49:10.919Z,98727.00
2022-08-12T01:49:21.767Z,98727.00
2022-08-12T01:49:30.887Z,98727.00
2022-08-12T01:49:40.914Z,98725.00
2022-08-12T01:49:50.835Z,98727.00
2022-08-12T01:50:00.997Z,98727.00
2022-08-12T01:50:10.004Z,98729.00
2022-08-12T01:50:20.962Z,98729.00
2022-08-12T01:50:29.995Z,98727.00
2022-08-12T01:50:43.205Z,98727.00
2022-08-12T01:50:50.036Z,98727.00
2022-08-12T01:51:00.626Z,98727.00
2022-08-12T01:51:10.031Z,98729.00
2022-08-12T01:52:04.570Z,98727.00
2022-08-12T01:52:12.635Z,98727.00
2022-08-12T01:52:15.666Z,98725.00
2022-08-12T01:52:20.361Z,98727.00
2022-08-12T01:52:21.352Z,98729.00
2022-08-12T01:52:21.624Z,98727.00
2022-08-12T01:52:22.756Z,98729.00
2022-08-12T01:52:31.963Z,98729.00
2022-08-12T01:52:42.099Z,98727.00
2022-08-12T01:52:51.465Z,98727.00
2022-08-12T01:52:59.995Z,98725.00
2022-08-12T01:53:10.028Z,98727.00
2022-08-12T01:53:20.065Z,98727.00
2022-08-12T01:53:29.986Z,98727.00
2022-08-12T01:53:50.337Z,98729.00
2022-08-12T01:53:51.241Z,98727.00
2022-08-12T01:54:01.083Z,98725.00
2022-08-12T01:54:13.057Z,98727.00
2022-08-12T01:54:21.067Z,98725.00
2022-08-12T01:54:31.087Z,98727.00
2022-08-12T01:54:43.026Z,98729.00
2022-08-12T01:54:53.048Z,98729.00
2022-08-12T01:55:02.516Z,98727.00
2022-08-12T01:55:11.118Z,98727.00
2022-08-12T01:55:23.006Z,98727.00
2022-08-12T01:55:31.826Z,98725.00
2022-08-12T01:55:41.099Z,98727.00
2022-08-12T01:55:53.018Z,98727.00
2022-08-12T01:56:03.003Z,98725.00
2022-08-12T01:56:13.000Z,98725.00
2022-08-12T01:56:21.084Z,98727.00
2022-08-12T01:56:31.244Z,98727.00
2022-08-12T01:56:41.978Z,98729.00
2022-08-12T01:56:53.012Z,98729.00
2022-08-12T01:57:01.044Z,98727.00
2022-08-12T01:57:11.093Z,98723.00
2022-08-12T01:57:57.680Z,98729.00
2022-08-12T01:57:58.109Z,98727.00
2022-08-12T01:57:58.894Z,98727.00
2022-08-12T01:57:58.948Z,98729.00
2022-08-12T01:58:06.484Z,98727.00
2022-08-12T01:58:14.558Z,98727.00